Sunset Island, Florida
Current Conditions -  °F | °C
As of 12:53 PM on Monday 26 Jan 2015 (Local Time) from KMIA Reporting Station
Scattered Clouds Scattered Clouds  
Wind Chill: 72°   Ceiling: Unl
Heat Index: 72°   Visibility: 10mi
Dew Point: 57°   Wind: 9mph
Humidity: 59%   Direction: 290°WNW
Pressure: 29.91"   Gusts: 23mph
Location:  25.8181°N, 80.1301°W
Report Text: KMIA 261753Z 29008G20KT 10SM SCT030 SCT060 22/14 A2991 RMK AO2 SLP127 60003 T02220139 10233 20144 58018
Loading
Personal Weather Stations






























Interactive Weather Map New forecast layout! Learn more

10-Day Weather Forecast

Advertisements
Track Severe Weather on mobile